Time;durP1;ratioP1;P1;durP2;ratioP2;P2;SDS_P1;SDS_P2;PMS_P1;PMS_P2;Temp;Humidity;BMP_temperature;BMP_pressure;BME280_temperature;BME280_humidity;BME280_pressure;Samples;Min_cycle;Max_cycle;Signal;HPM_P1;HPM_P2
2023/12/04 00:01:53;;;;;;;3.55;1.65;;;4.10;99.90;;;;;;5052673;28;20032;-74
2023/12/04 00:04:19;;;;;;;2.85;1.58;;;4.10;99.90;;;;;;5052757;28;20037;-74
2023/12/04 00:06:45;;;;;;;2.85;0.75;;;4.20;99.90;;;;;;5052484;28;20076;-74
2023/12/04 00:09:11;;;;;;;0.47;0.47;;;4.10;99.90;;;;;;5052585;28;20043;-74
2023/12/04 00:11:37;;;;;;;0.35;0.35;;;4.20;99.90;;;;;;5052495;28;20029;-74
2023/12/04 00:14:03;;;;;;;5.93;1.55;;;4.10;99.90;;;;;;5052302;28;20036;-74
2023/12/04 00:16:29;;;;;;;1.80;0.93;;;4.10;99.90;;;;;;5052415;28;20037;-74
2023/12/04 00:18:54;;;;;;;6.22;2.10;;;4.00;99.90;;;;;;5051244;28;20106;-73
2023/12/04 00:21:20;;;;;;;1.08;1.08;;;4.00;99.90;;;;;;5052482;28;20025;-74
2023/12/04 00:23:46;;;;;;;0.22;0.15;;;4.00;99.90;;;;;;5052302;28;20052;-74
2023/12/04 00:26:12;;;;;;;2.80;2.35;;;4.00;99.90;;;;;;5052566;28;20036;-74
2023/12/04 00:28:39;;;;;;;1.73;1.63;;;4.10;99.90;;;;;;5052488;28;20444;-74
2023/12/04 00:31:05;;;;;;;1.52;0.95;;;4.20;99.90;;;;;;5051351;28;20031;-74
2023/12/04 00:33:31;;;;;;;2.90;1.48;;;4.00;99.90;;;;;;5052199;28;20026;-74
2023/12/04 00:35:57;;;;;;;2.92;1.25;;;4.10;99.90;;;;;;5052357;28;20087;-73
2023/12/04 00:38:23;;;;;;;3.10;1.45;;;4.20;99.90;;;;;;5052123;28;20206;-74
2023/12/04 00:40:49;;;;;;;5.57;1.67;;;4.10;99.90;;;;;;5053387;28;20099;-74
2023/12/04 00:43:15;;;;;;;2.28;1.65;;;4.00;99.90;;;;;;5056197;28;20387;-74
2023/12/04 00:45:41;;;;;;;4.90;2.67;;;4.10;99.90;;;;;;5056312;28;20029;-74
2023/12/04 00:48:06;;;;;;;4.93;1.67;;;4.10;99.90;;;;;;5056061;28;20071;-73
2023/12/04 00:50:32;;;;;;;2.47;1.33;;;4.00;99.90;;;;;;5056544;28;20473;-74
2023/12/04 00:52:59;;;;;;;0.10;0.10;;;4.00;99.90;;;;;;5055718;28;20036;-74
2023/12/04 00:55:25;;;;;;;1.85;1.75;;;4.10;99.90;;;;;;5056169;28;20029;-74
2023/12/04 00:57:50;;;;;;;1.58;0.77;;;4.00;99.90;;;;;;5055968;28;20025;-74
2023/12/04 01:00:16;;;;;;;0.17;0.17;;;4.00;99.90;;;;;;5056190;28;20496;-74
2023/12/04 01:02:42;;;;;;;1.55;0.47;;;4.10;99.90;;;;;;5056157;28;20044;-74
2023/12/04 01:05:08;;;;;;;2.67;1.63;;;4.20;99.90;;;;;;5055902;28;20033;-74
2023/12/04 01:07:35;;;;;;;0.40;0.40;;;4.20;99.90;;;;;;5055948;28;20025;-74
2023/12/04 01:10:01;;;;;;;8.20;2.25;;;4.10;99.90;;;;;;5055807;28;20472;-73
2023/12/04 01:12:27;;;;;;;1.52;0.80;;;4.10;99.90;;;;;;5055810;28;20032;-74
2023/12/04 01:14:53;;;;;;;1.60;0.70;;;4.20;99.90;;;;;;5055733;28;20393;-74
2023/12/04 01:17:19;;;;;;;1.58;1.15;;;4.30;99.90;;;;;;5055761;28;20076;-73
2023/12/04 01:19:45;;;;;;;0.93;0.77;;;4.20;99.90;;;;;;5054377;28;20021;-73
2023/12/04 01:22:10;;;;;;;2.78;1.17;;;4.20;99.90;;;;;;5055358;28;20552;-73
2023/12/04 01:24:36;;;;;;;0.60;0.60;;;4.20;99.90;;;;;;5054091;28;20025;-73
2023/12/04 01:27:02;;;;;;;0.10;0.10;;;4.20;99.90;;;;;;5054262;28;20065;-73
2023/12/04 01:29:28;;;;;;;2.92;1.25;;;4.20;99.90;;;;;;5054035;28;20021;-74
2023/12/04 01:31:54;;;;;;;0.20;0.20;;;4.20;99.90;;;;;;5054511;28;20025;-74
2023/12/04 01:34:20;;;;;;;4.97;1.35;;;4.20;99.90;;;;;;5053409;28;20393;-73
2023/12/04 01:36:46;;;;;;;1.55;1.13;;;4.10;99.90;;;;;;5055337;28;20037;-74
2023/12/04 01:39:12;;;;;;;15.32;0.85;;;4.10;99.90;;;;;;5053970;28;20033;-74
2023/12/04 01:41:38;;;;;;;1.40;1.17;;;4.10;99.90;;;;;;5054121;28;20040;-73
2023/12/04 01:44:03;;;;;;;1.05;1.05;;;4.10;99.90;;;;;;5053999;28;20466;-74
2023/12/04 01:46:30;;;;;;;1.90;1.65;;;4.20;99.90;;;;;;5053685;28;20075;-73
2023/12/04 01:48:56;;;;;;;0.85;0.47;;;4.20;99.90;;;;;;5054869;28;20032;-73
2023/12/04 01:51:23;;;;;;;0.00;0.00;;;4.10;99.90;;;;;;5055035;28;20462;-72
2023/12/04 01:53:49;;;;;;;1.17;0.75;;;4.00;99.90;;;;;;5053888;28;20020;-72
2023/12/04 01:56:17;;;;;;;3.83;1.33;;;4.00;99.90;;;;;;5054751;28;20037;-72
2023/12/04 01:58:43;;;;;;;0.30;0.30;;;4.00;99.90;;;;;;5053880;28;20048;-72
2023/12/04 02:01:10;;;;;;;2.63;1.77;;;4.10;99.90;;;;;;5055040;28;20052;-72
2023/12/04 02:03:36;;;;;;;0.98;0.73;;;4.10;99.90;;;;;;5054455;28;20029;-72
2023/12/04 02:06:03;;;;;;;0.98;0.65;;;3.90;99.90;;;;;;5054652;28;20029;-72
2023/12/04 02:08:30;;;;;;;2.40;1.13;;;4.00;99.90;;;;;;5053105;28;20104;-72
2023/12/04 02:10:56;;;;;;;1.70;1.02;;;4.00;99.90;;;;;;5054697;28;20033;-72
2023/12/04 02:13:22;;;;;;;1.95;1.35;;;3.90;99.90;;;;;;5054616;28;20462;-72
2023/12/04 02:15:51;;;;;;;0.10;0.10;;;4.00;99.90;;;;;;5053059;28;20059;-73
2023/12/04 02:18:18;;;;;;;6.88;6.28;;;3.90;99.90;;;;;;5054733;28;20079;-73
2023/12/04 02:20:44;;;;;;;4.72;1.52;;;3.90;99.90;;;;;;5054605;28;20025;-73
2023/12/04 02:23:13;;;;;;;1.90;1.45;;;4.00;99.90;;;;;;5053479;28;20028;-72
2023/12/04 02:25:39;;;;;;;1.80;1.45;;;4.00;99.90;;;;;;5053009;28;20025;-73
2023/12/04 02:28:11;;;;;;;1.27;1.17;;;4.00;99.90;;;;;;5054517;28;20032;-73
2023/12/04 02:30:39;;;;;;;3.05;2.22;;;4.00;99.90;;;;;;5054314;28;20021;-73
2023/12/04 02:33:07;;;;;;;1.88;0.95;;;3.90;99.90;;;;;;5053074;28;20196;-73
2023/12/04 02:35:35;;;;;;;0.65;0.65;;;3.90;99.90;;;;;;5054095;28;20017;-73
2023/12/04 02:38:02;;;;;;;2.33;0.85;;;4.00;99.90;;;;;;5036416;28;20035;-73
2023/12/04 02:40:28;;;;;;;0.20;0.20;;;3.90;99.90;;;;;;5052993;28;20029;-73
2023/12/04 02:42:54;;;;;;;7.05;1.17;;;4.00;99.90;;;;;;5054236;28;20161;-73
2023/12/04 02:45:20;;;;;;;2.92;2.13;;;4.00;99.90;;;;;;5054190;28;20108;-75
2023/12/04 02:47:46;;;;;;;2.20;1.10;;;4.00;99.90;;;;;;5052402;28;20465;-73
2023/12/04 02:50:12;;;;;;;1.27;0.65;;;4.10;99.90;;;;;;5052832;28;20079;-74
2023/12/04 02:52:37;;;;;;;1.58;0.77;;;4.10;99.90;;;;;;5053687;28;20492;-74
2023/12/04 02:55:04;;;;;;;1.75;1.10;;;4.10;99.90;;;;;;5054125;28;20503;-75
2023/12/04 02:57:29;;;;;;;1.50;1.40;;;4.10;99.90;;;;;;5053952;28;20024;-74
2023/12/04 02:59:55;;;;;;;0.20;0.20;;;4.00;99.90;;;;;;5054060;28;20473;-72
2023/12/04 03:02:21;;;;;;;5.18;2.55;;;4.00;99.90;;;;;;5053598;28;20519;-72
2023/12/04 03:04:47;;;;;;;9.80;1.75;;;4.00;99.90;;;;;;5053433;28;20028;-73
2023/12/04 03:07:13;;;;;;;5.15;0.80;;;4.10;99.90;;;;;;5053840;28;20136;-74
2023/12/04 03:09:38;;;;;;;8.77;3.60;;;4.10;99.90;;;;;;5053895;28;20374;-75
2023/12/04 03:12:05;;;;;;;1.67;0.98;;;4.10;99.90;;;;;;5053724;28;20045;-74
2023/12/04 03:14:30;;;;;;;0.10;0.10;;;4.10;99.90;;;;;;5053586;28;20040;-74
2023/12/04 03:16:56;;;;;;;1.00;0.90;;;4.10;99.90;;;;;;5052994;28;20040;-74
2023/12/04 03:19:22;;;;;;;0.00;0.00;;;4.10;99.90;;;;;;5053487;28;20104;-74
2023/12/04 03:21:48;;;;;;;2.45;0.85;;;4.30;99.90;;;;;;5053273;28;20474;-74
2023/12/04 03:24:14;;;;;;;0.65;0.65;;;4.30;99.90;;;;;;5053682;28;20466;-74
2023/12/04 03:26:40;;;;;;;1.25;1.20;;;4.20;99.90;;;;;;5053198;28;20436;-74
2023/12/04 03:29:06;;;;;;;0.32;0.32;;;4.20;99.90;;;;;;5053401;28;20094;-74
2023/12/04 03:31:34;;;;;;;0.10;0.10;;;4.10;99.90;;;;;;5052763;28;20477;-74
2023/12/04 03:34:00;;;;;;;1.70;1.08;;;4.10;99.90;;;;;;5053236;28;20086;-73
2023/12/04 03:36:25;;;;;;;3.30;2.00;;;4.30;99.90;;;;;;5053118;28;20033;-74
2023/12/04 03:38:51;;;;;;;2.97;1.00;;;4.30;99.90;;;;;;5035164;28;20536;-74
2023/12/04 03:41:17;;;;;;;2.90;1.45;;;4.30;99.90;;;;;;5053033;28;20032;-74
2023/12/04 03:43:43;;;;;;;0.65;0.50;;;4.30;99.90;;;;;;5052839;28;20380;-74
2023/12/04 03:46:09;;;;;;;0.40;0.40;;;4.30;99.90;;;;;;5052808;28;20294;-74
2023/12/04 03:48:35;;;;;;;2.33;2.10;;;4.20;99.90;;;;;;5051445;28;20062;-74
2023/12/04 03:51:00;;;;;;;1.38;1.10;;;4.30;99.90;;;;;;5051909;28;20493;-74
2023/12/04 03:53:26;;;;;;;1.45;1.17;;;4.20;99.90;;;;;;5052901;28;20112;-73
2023/12/04 03:55:52;;;;;;;1.90;1.38;;;4.20;99.90;;;;;;5052739;28;20155;-73
2023/12/04 03:58:18;;;;;;;2.63;1.13;;;4.20;99.90;;;;;;5052727;28;20108;-73
2023/12/04 04:00:44;;;;;;;0.80;0.75;;;4.20;99.90;;;;;;5052493;28;20033;-73
2023/12/04 04:03:10;;;;;;;1.38;1.27;;;4.20;99.90;;;;;;5052596;28;20056;-73
2023/12/04 04:05:36;;;;;;;2.63;1.70;;;4.20;99.90;;;;;;5051367;28;20041;-73
2023/12/04 04:08:02;;;;;;;1.30;0.90;;;4.20;99.90;;;;;;5052560;28;20036;-73
2023/12/04 04:10:28;;;;;;;1.90;1.70;;;4.20;99.90;;;;;;5051385;28;20029;-74
2023/12/04 04:12:54;;;;;;;0.35;0.35;;;4.30;99.90;;;;;;5051129;28;20378;-74
2023/12/04 04:15:20;;;;;;;0.30;0.30;;;4.30;99.90;;;;;;5051994;28;20024;-72
2023/12/04 04:17:45;;;;;;;3.28;1.77;;;4.20;99.90;;;;;;5054433;28;20029;-72
2023/12/04 04:20:12;;;;;;;1.55;1.13;;;4.20;99.90;;;;;;5056814;28;20484;-72
2023/12/04 04:22:39;;;;;;;2.63;2.05;;;4.20;99.90;;;;;;5050407;28;20025;-72
2023/12/04 04:25:08;;;;;;;1.00;0.85;;;4.20;99.90;;;;;;5045468;28;20026;-72
2023/12/04 04:27:34;;;;;;;0.88;0.60;;;4.30;99.90;;;;;;5044709;28;20120;-72
2023/12/04 04:30:00;;;;;;;2.60;1.75;;;4.30;99.90;;;;;;5046421;28;20053;-72
2023/12/04 04:32:26;;;;;;;3.15;1.23;;;4.20;99.90;;;;;;5052340;28;20029;-72
2023/12/04 04:34:52;;;;;;;2.15;1.83;;;4.10;99.90;;;;;;5050849;28;20066;-72
2023/12/04 04:37:19;;;;;;;5.05;1.75;;;4.20;99.90;;;;;;5052359;28;20040;-72
2023/12/04 04:39:45;;;;;;;1.95;1.63;;;4.30;99.90;;;;;;5052054;28;20028;-72
2023/12/04 04:42:11;;;;;;;0.05;0.05;;;4.20;99.90;;;;;;5048800;28;20021;-72
2023/12/04 04:44:37;;;;;;;3.60;1.25;;;4.10;99.90;;;;;;5051970;28;20025;-72
2023/12/04 04:47:03;;;;;;;3.03;1.45;;;4.20;99.90;;;;;;5051902;28;20458;-72
2023/12/04 04:49:29;;;;;;;0.25;0.25;;;4.20;99.90;;;;;;5052412;28;20435;-72
2023/12/04 04:51:55;;;;;;;5.13;2.30;;;4.20;99.90;;;;;;5051769;28;20094;-72
2023/12/04 04:54:20;;;;;;;11.70;3.35;;;4.10;99.90;;;;;;5050727;28;20389;-72
2023/12/04 04:56:46;;;;;;;1.85;1.73;;;4.10;99.90;;;;;;5052034;28;20083;-73
2023/12/04 04:59:12;;;;;;;1.75;1.13;;;4.10;99.90;;;;;;5051664;28;20100;-73
2023/12/04 05:01:38;;;;;;;0.47;0.47;;;4.10;99.90;;;;;;5052007;28;20024;-73
2023/12/04 05:04:04;;;;;;;0.50;0.50;;;4.20;99.90;;;;;;5051660;28;20133;-74
2023/12/04 05:06:30;;;;;;;3.22;1.70;;;4.20;99.90;;;;;;5051804;28;20025;-73
2023/12/04 05:08:56;;;;;;;7.78;1.88;;;4.20;99.90;;;;;;5051665;28;20025;-73
2023/12/04 05:11:22;;;;;;;7.28;2.15;;;4.10;99.90;;;;;;5051977;28;20033;-73
2023/12/04 05:13:48;;;;;;;5.35;2.60;;;4.10;99.90;;;;;;5053451;28;20032;-73
2023/12/04 05:16:14;;;;;;;0.43;0.43;;;4.10;99.90;;;;;;5051509;28;20041;-73
2023/12/04 05:18:40;;;;;;;3.88;1.00;;;4.20;99.90;;;;;;5050728;28;20056;-73
2023/12/04 05:21:09;;;;;;;2.90;1.10;;;4.20;99.90;;;;;;5052078;28;20059;-73
2023/12/04 05:23:36;;;;;;;2.72;0.80;;;4.20;99.90;;;;;;5051820;28;20151;-73
2023/12/04 05:26:03;;;;;;;7.03;2.90;;;4.10;99.90;;;;;;5034191;28;20086;-73
2023/12/04 05:28:28;;;;;;;4.57;1.20;;;4.10;99.90;;;;;;5054583;28;20398;-73
2023/12/04 05:30:54;;;;;;;8.40;1.20;;;4.30;99.90;;;;;;5055613;28;20037;-73
2023/12/04 05:33:20;;;;;;;0.65;0.65;;;4.20;99.90;;;;;;5054086;28;20033;-73
2023/12/04 05:35:48;;;;;;;1.05;0.43;;;4.20;99.90;;;;;;5055290;28;20037;-73
2023/12/04 05:38:14;;;;;;;0.45;0.35;;;4.20;99.90;;;;;;5055565;28;20036;-73
2023/12/04 05:40:40;;;;;;;1.10;0.55;;;4.30;99.90;;;;;;5054112;28;20033;-72
2023/12/04 05:43:06;;;;;;;1.08;0.75;;;4.30;99.90;;;;;;5055350;28;20023;-73
2023/12/04 05:45:32;;;;;;;1.08;0.95;;;4.30;99.90;;;;;;5054951;28;20462;-72
2023/12/04 05:47:57;;;;;;;0.55;0.50;;;4.20;99.90;;;;;;5054031;28;20436;-72
2023/12/04 05:50:23;;;;;;;4.07;1.67;;;4.20;99.90;;;;;;5054852;28;20440;-72
2023/12/04 05:52:50;;;;;;;0.35;0.35;;;4.10;99.90;;;;;;5053992;28;20064;-73
2023/12/04 05:55:16;;;;;;;3.72;2.63;;;4.20;99.90;;;;;;5054637;28;20025;-73
2023/12/04 05:57:42;;;;;;;4.95;2.38;;;4.20;99.90;;;;;;5054643;28;20112;-72
2023/12/04 06:00:12;;;;;;;1.25;0.82;;;4.20;99.90;;;;;;5054968;28;20146;-72
2023/12/04 06:02:39;;;;;;;2.38;1.73;;;4.30;99.90;;;;;;5054470;28;20052;-73
2023/12/04 06:05:07;;;;;;;3.65;2.53;;;4.30;99.90;;;;;;5062830;28;20642;-73
2023/12/04 06:07:34;;;;;;;0.00;0.00;;;4.40;99.90;;;;;;5056996;28;20025;-72
2023/12/04 06:10:00;;;;;;;6.18;1.90;;;4.40;99.90;;;;;;5054548;28;20017;-73
2023/12/04 06:12:25;;;;;;;5.05;4.68;;;4.30;99.90;;;;;;5054553;28;20040;-72
2023/12/04 06:14:51;;;;;;;0.35;0.35;;;4.30;99.90;;;;;;5054514;28;20704;-72
2023/12/04 06:17:17;;;;;;;1.50;0.93;;;4.30;99.90;;;;;;5054520;28;20070;-72
2023/12/04 06:19:43;;;;;;;0.32;0.30;;;4.30;99.90;;;;;;5053203;28;20033;-72
2023/12/04 06:22:09;;;;;;;2.75;0.93;;;4.30;99.90;;;;;;5054762;28;20025;-72
2023/12/04 06:24:35;;;;;;;6.35;1.00;;;4.30;99.90;;;;;;5054458;28;20583;-74
2023/12/04 06:27:01;;;;;;;0.30;0.30;;;4.40;99.90;;;;;;5052969;28;20032;-72
2023/12/04 06:29:27;;;;;;;1.50;1.40;;;4.30;99.90;;;;;;5054445;28;20056;-72
2023/12/04 06:31:54;;;;;;;0.00;0.00;;;4.20;99.90;;;;;;5054441;28;20021;-74
2023/12/04 06:34:20;;;;;;;0.57;0.57;;;4.20;99.90;;;;;;5054567;28;20412;-73
2023/12/04 06:36:46;;;;;;;1.48;1.02;;;4.20;99.90;;;;;;5054036;28;20039;-72
2023/12/04 06:39:13;;;;;;;1.20;1.13;;;4.20;99.90;;;;;;5052679;28;20029;-73
2023/12/04 06:41:40;;;;;;;1.98;1.25;;;4.20;99.90;;;;;;5052754;28;20044;-71
2023/12/04 06:44:06;;;;;;;2.92;1.23;;;4.30;99.90;;;;;;5054297;28;20036;-72
2023/12/04 06:46:37;;;;;;;1.25;1.13;;;4.30;99.90;;;;;;5053857;28;20473;-71
2023/12/04 06:49:05;;;;;;;0.98;0.82;;;4.20;99.90;;;;;;5054031;28;20033;-71
2023/12/04 06:51:30;;;;;;;1.23;1.00;;;4.10;99.90;;;;;;5053799;28;20477;-71
2023/12/04 06:53:56;;;;;;;9.50;1.58;;;4.10;99.90;;;;;;5052362;28;20040;-71
2023/12/04 06:56:22;;;;;;;1.55;0.88;;;4.20;99.90;;;;;;5052525;28;20114;-72
2023/12/04 06:58:48;;;;;;;0.35;0.35;;;4.20;99.90;;;;;;5053894;28;20040;-72
2023/12/04 07:01:14;;;;;;;2.03;0.95;;;4.20;99.90;;;;;;5053805;28;20033;-72
2023/12/04 07:03:39;;;;;;;0.45;0.45;;;4.30;99.90;;;;;;5052637;28;20036;-72
2023/12/04 07:06:06;;;;;;;0.45;0.32;;;4.20;99.90;;;;;;5053389;28;20025;-71
2023/12/04 07:08:31;;;;;;;0.38;0.28;;;4.20;99.90;;;;;;5053519;28;20021;-72
2023/12/04 07:10:57;;;;;;;1.27;0.80;;;4.20;99.90;;;;;;5053625;28;20378;-72
2023/12/04 07:13:23;;;;;;;0.73;0.65;;;4.20;99.90;;;;;;5053561;28;20121;-71
2023/12/04 07:15:49;;;;;;;0.70;0.70;;;4.20;99.90;;;;;;5053849;28;20037;-74
2023/12/04 07:18:15;;;;;;;2.22;1.90;;;4.30;99.90;;;;;;5053390;28;20115;-71
2023/12/04 07:20:41;;;;;;;0.30;0.30;;;4.40;99.90;;;;;;5052314;28;20029;-71
2023/12/04 07:23:07;;;;;;;0.55;0.55;;;4.40;99.90;;;;;;5053016;28;20484;-72
2023/12/04 07:25:33;;;;;;;1.15;1.00;;;4.40;99.90;;;;;;5053540;28;20370;-72
2023/12/04 07:27:59;;;;;;;0.70;0.47;;;4.50;99.90;;;;;;5053464;28;20036;-71
2023/12/04 07:30:25;;;;;;;3.47;1.23;;;4.50;99.90;;;;;;5053227;28;20115;-71
2023/12/04 07:32:51;;;;;;;6.82;1.15;;;4.50;99.90;;;;;;5053258;28;20024;-71
2023/12/04 07:35:21;;;;;;;1.17;0.93;;;4.60;99.90;;;;;;5051811;28;20021;-71
2023/12/04 07:37:46;;;;;;;1.38;0.70;;;4.60;99.90;;;;;;5051534;28;20068;-71
2023/12/04 07:40:12;;;;;;;0.28;0.28;;;4.60;99.90;;;;;;5051915;28;20072;-73
2023/12/04 07:42:38;;;;;;;0.77;0.25;;;4.70;99.90;;;;;;5053074;28;20025;-70
2023/12/04 07:45:05;;;;;;;0.22;0.22;;;4.80;99.90;;;;;;5051767;28;20078;-71
2023/12/04 07:47:30;;;;;;;0.93;0.47;;;4.80;99.90;;;;;;5052882;28;20029;-71
2023/12/04 07:49:56;;;;;;;1.02;0.73;;;4.80;99.90;;;;;;5051146;28;20047;-71
2023/12/04 07:52:22;;;;;;;1.83;1.50;;;4.80;99.90;;;;;;5052309;28;20078;-70
2023/12/04 07:54:48;;;;;;;0.30;0.30;;;4.70;99.90;;;;;;5051905;28;20029;-74
2023/12/04 07:57:14;;;;;;;0.30;0.28;;;4.80;99.90;;;;;;5052072;28;20091;-74
2023/12/04 07:59:40;;;;;;;0.20;0.20;;;4.80;99.90;;;;;;5052446;28;20466;-74
2023/12/04 08:02:05;;;;;;;0.77;0.40;;;4.80;99.90;;;;;;5053755;28;20028;-74
2023/12/04 08:04:31;;;;;;;0.40;0.40;;;4.70;99.90;;;;;;5051908;28;20116;-74
2023/12/04 08:06:57;;;;;;;3.35;1.40;;;4.70;99.90;;;;;;5044120;28;20026;-71
2023/12/04 08:09:23;;;;;;;0.45;0.45;;;4.80;99.90;;;;;;5059493;28;20501;-73
2023/12/04 08:11:49;;;;;;;2.83;1.05;;;4.80;99.90;;;;;;5059278;28;20029;-73
2023/12/04 08:14:16;;;;;;;0.00;0.00;;;4.80;99.90;;;;;;5057166;28;20024;-73
2023/12/04 08:16:41;;;;;;;0.10;0.10;;;4.90;99.90;;;;;;5055021;28;20090;-73
2023/12/04 08:19:07;;;;;;;9.27;2.05;;;4.90;99.90;;;;;;5052370;28;20103;-73
2023/12/04 08:21:33;;;;;;;1.02;0.95;;;4.90;99.90;;;;;;5064179;28;20024;-74
2023/12/04 08:23:59;;;;;;;2.05;0.55;;;4.90;99.90;;;;;;5063719;28;20033;-74
2023/12/04 08:26:25;;;;;;;8.02;1.58;;;4.90;99.90;;;;;;5060809;28;20158;-74
2023/12/04 08:28:54;;;;;;;2.03;1.40;;;5.00;99.90;;;;;;5054273;28;20355;-74
2023/12/04 08:31:20;;;;;;;1.17;0.90;;;5.00;99.90;;;;;;5056155;28;20033;-72
2023/12/04 08:33:45;;;;;;;1.88;1.17;;;5.00;99.90;;;;;;5063185;28;20025;-74
2023/12/04 08:36:12;;;;;;;4.47;3.10;;;5.00;99.90;;;;;;5062904;28;20044;-74
2023/12/04 08:38:37;;;;;;;1.55;1.42;;;5.00;99.90;;;;;;5058824;28;20416;-74
2023/12/04 08:41:04;;;;;;;1.95;0.98;;;5.10;99.90;;;;;;5053060;28;20056;-74
2023/12/04 08:43:30;;;;;;;1.58;1.20;;;5.10;99.90;;;;;;5064699;28;20059;-74
2023/12/04 08:45:56;;;;;;;1.77;1.40;;;5.10;99.90;;;;;;5064496;28;20052;-74
2023/12/04 08:48:21;;;;;;;2.90;1.38;;;5.00;99.90;;;;;;5063121;28;20028;-74
2023/12/04 08:50:48;;;;;;;0.30;0.30;;;5.10;99.90;;;;;;5054566;28;20074;-73
2023/12/04 08:53:14;;;;;;;3.42;1.73;;;5.00;99.90;;;;;;5052214;28;20037;-73
2023/12/04 08:55:40;;;;;;;0.90;0.32;;;5.00;99.90;;;;;;5063710;28;20021;-73
2023/12/04 08:58:06;;;;;;;1.48;1.33;;;5.10;99.90;;;;;;5064416;28;20539;-72
2023/12/04 09:00:32;;;;;;;2.95;1.70;;;5.10;99.90;;;;;;5060387;28;20414;-73
2023/12/04 09:02:58;;;;;;;3.95;2.20;;;5.00;99.90;;;;;;5056666;28;20405;-73
2023/12/04 09:05:24;;;;;;;0.65;0.65;;;5.00;99.90;;;;;;5054873;28;20037;-73
2023/12/04 09:07:50;;;;;;;0.95;0.95;;;4.90;99.90;;;;;;5067622;28;20025;-73
2023/12/04 09:10:16;;;;;;;4.90;1.45;;;4.90;99.90;;;;;;5066516;28;20032;-73
2023/12/04 09:12:42;;;;;;;1.88;1.23;;;4.90;99.90;;;;;;5061525;28;20037;-73
2023/12/04 09:15:08;;;;;;;4.13;1.47;;;4.90;99.90;;;;;;5056964;28;20043;-73
2023/12/04 09:17:34;;;;;;;0.52;0.52;;;4.90;99.90;;;;;;5058342;28;20095;-73
2023/12/04 09:20:00;;;;;;;23.27;2.40;;;4.90;99.90;;;;;;5057389;28;20028;-72
2023/12/04 09:22:25;;;;;;;2.05;1.48;;;4.90;99.90;;;;;;5071002;28;20043;-73
2023/12/04 09:24:51;;;;;;;5.63;2.75;;;5.00;99.90;;;;;;5065855;28;20377;-73
2023/12/04 09:27:17;;;;;;;4.53;1.40;;;5.00;99.90;;;;;;5059956;28;20039;-74
2023/12/04 09:29:43;;;;;;;3.47;3.17;;;5.00;99.90;;;;;;5055954;28;20037;-73
2023/12/04 09:32:10;;;;;;;1.60;1.05;;;5.00;99.90;;;;;;5062493;28;20021;-73
2023/12/04 09:34:36;;;;;;;5.07;2.30;;;5.00;99.90;;;;;;5069572;28;20443;-73
2023/12/04 09:37:01;;;;;;;3.95;2.40;;;5.00;99.90;;;;;;5062592;28;20025;-72
2023/12/04 09:39:28;;;;;;;0.35;0.35;;;5.00;99.90;;;;;;5054794;28;20681;-72
2023/12/04 09:41:55;;;;;;;0.40;0.20;;;5.00;99.90;;;;;;5057540;28;20033;-73
2023/12/04 09:44:24;;;;;;;7.20;3.05;;;5.00;99.90;;;;;;5069933;28;20370;-73
2023/12/04 09:46:51;;;;;;;1.75;1.10;;;4.90;99.90;;;;;;5067947;28;20119;-73
2023/12/04 09:49:18;;;;;;;1.48;1.38;;;5.00;99.90;;;;;;5059962;28;20063;-73
2023/12/04 09:51:46;;;;;;;4.93;2.38;;;4.90;99.90;;;;;;5057460;28;20033;-73
2023/12/04 09:54:13;;;;;;;2.60;2.28;;;5.00;99.90;;;;;;5056450;28;20013;-73
2023/12/04 09:56:39;;;;;;;5.18;2.78;;;4.90;99.90;;;;;;5069108;28;20043;-73
2023/12/04 09:59:07;;;;;;;2.10;1.95;;;5.00;99.90;;;;;;5063053;28;20422;-74
2023/12/04 10:01:36;;;;;;;2.55;0.98;;;5.10;99.90;;;;;;5058555;28;20492;-73
2023/12/04 10:04:05;;;;;;;1.65;1.42;;;5.00;99.90;;;;;;5056192;28;20025;-73
2023/12/04 10:06:31;;;;;;;0.08;0.08;;;5.00;99.90;;;;;;5060573;28;20488;-73
2023/12/04 10:08:58;;;;;;;5.65;2.00;;;5.10;99.90;;;;;;5068083;28;20013;-73
2023/12/04 10:11:26;;;;;;;5.45;1.90;;;5.10;99.90;;;;;;5060737;28;20401;-73
2023/12/04 10:13:54;;;;;;;8.13;1.52;;;5.10;99.90;;;;;;5058487;28;20036;-73
2023/12/04 10:16:33;;;;;;;3.40;1.90;;;5.00;99.90;;;;;;5055660;28;20386;-73
2023/12/04 10:19:15;;;;;;;0.95;0.50;;;4.90;99.90;;;;;;5054520;28;20477;-73
2023/12/04 10:21:41;;;;;;;2.05;1.83;;;4.90;99.90;;;;;;5065120;28;20056;-73
2023/12/04 10:24:08;;;;;;;1.83;1.73;;;4.90;99.90;;;;;;5066720;28;20019;-73
2023/12/04 10:26:34;;;;;;;2.50;1.10;;;4.90;99.90;;;;;;5061252;28;20028;-74
2023/12/04 10:29:05;;;;;;;5.55;2.33;;;4.90;99.90;;;;;;5056336;28;20027;-73
2023/12/04 10:31:34;;;;;;;0.57;0.57;;;5.00;99.90;;;;;;5056596;28;20033;-73
2023/12/04 10:34:01;;;;;;;0.85;0.85;;;4.90;99.90;;;;;;5066175;28;20025;-73
2023/12/04 10:36:28;;;;;;;5.57;2.13;;;4.90;99.90;;;;;;5065697;28;20119;-73
2023/12/04 10:39:01;;;;;;;1.75;0.93;;;4.90;99.90;;;;;;5056729;28;20082;-73
2023/12/04 10:41:27;;;;;;;4.45;2.28;;;4.90;99.90;;;;;;5055082;28;20025;-73
2023/12/04 10:43:55;;;;;;;3.83;2.00;;;5.00;99.90;;;;;;5061016;28;20037;-73
2023/12/04 10:46:21;;;;;;;2.28;1.60;;;5.00;99.90;;;;;;5065689;28;20086;-73
2023/12/04 10:48:48;;;;;;;3.63;1.73;;;4.90;99.90;;;;;;5054849;28;20446;-75
2023/12/04 10:51:17;;;;;;;0.22;0.22;;;4.90;99.90;;;;;;5056306;28;20032;-74
2023/12/04 10:53:44;;;;;;;3.67;2.05;;;5.10;99.90;;;;;;5045076;28;20048;-72
2023/12/04 10:56:25;;;;;;;4.90;1.58;;;4.90;99.90;;;;;;5063855;28;20079;-73
2023/12/04 10:58:52;;;;;;;4.35;1.85;;;4.90;99.90;;;;;;5056449;28;20041;-73
2023/12/04 11:01:20;;;;;;;7.68;3.25;;;4.90;99.90;;;;;;5053503;28;20033;-73
2023/12/04 11:03:54;;;;;;;2.00;1.65;;;4.90;99.90;;;;;;5053976;28;20039;-73
2023/12/04 11:06:21;;;;;;;1.77;1.63;;;5.10;99.90;;;;;;5057756;28;20104;-73
2023/12/04 11:08:48;;;;;;;4.20;1.90;;;5.10;99.90;;;;;;5050824;28;20028;-72
2023/12/04 11:11:23;;;;;;;1.35;1.25;;;5.00;99.90;;;;;;5057107;28;20033;-73
2023/12/04 11:13:53;;;;;;;6.43;2.83;;;5.10;99.90;;;;;;5057337;28;20040;-73
2023/12/04 11:16:22;;;;;;;1.23;1.13;;;5.00;99.90;;;;;;5050323;28;20059;-73
2023/12/04 11:18:55;;;;;;;5.40;2.13;;;4.90;99.90;;;;;;5052002;28;20025;-72
2023/12/04 11:21:21;;;;;;;1.65;1.45;;;4.90;99.90;;;;;;5056290;28;20041;-72
2023/12/04 11:23:48;;;;;;;2.15;1.48;;;4.80;99.90;;;;;;5061289;28;20025;-73
2023/12/04 11:26:15;;;;;;;2.22;1.10;;;4.90;99.90;;;;;;5062805;28;20016;-73
2023/12/04 11:28:42;;;;;;;1.80;1.30;;;4.90;99.90;;;;;;5055315;28;20028;-73
2023/12/04 11:31:08;;;;;;;3.20;1.10;;;5.10;99.90;;;;;;5044398;28;20033;-73
2023/12/04 11:33:38;;;;;;;0.63;0.63;;;5.10;99.90;;;;;;5049242;28;20330;-73
2023/12/04 11:36:12;;;;;;;3.03;1.88;;;5.00;99.90;;;;;;5053001;28;20055;-75
2023/12/04 11:38:43;;;;;;;1.95;1.65;;;4.90;99.90;;;;;;5051259;28;20020;-75
2023/12/04 11:41:20;;;;;;;2.28;1.65;;;5.00;99.90;;;;;;5052505;28;20112;-75
2023/12/04 11:43:47;;;;;;;2.42;1.52;;;4.90;99.90;;;;;;5044407;28;20029;-74
2023/12/04 11:46:20;;;;;;;3.33;1.45;;;4.90;99.90;;;;;;5051660;28;20033;-74
2023/12/04 11:48:47;;;;;;;0.28;0.28;;;4.90;99.90;;;;;;5045232;28;20022;-74
2023/12/04 11:51:35;;;;;;;3.95;1.95;;;4.90;99.90;;;;;;5052769;28;20082;-74
2023/12/04 11:54:04;;;;;;;4.03;1.20;;;4.90;99.90;;;;;;5049136;28;20082;-75
2023/12/04 11:56:30;;;;;;;2.67;1.60;;;4.80;99.90;;;;;;5052759;28;20029;-75
2023/12/04 11:59:06;;;;;;;1.15;0.68;;;4.80;99.90;;;;;;5050993;28;20029;-75
2023/12/04 12:01:38;;;;;;;7.05;6.53;;;4.80;99.90;;;;;;5052641;28;20044;-75
2023/12/04 12:04:09;;;;;;;2.58;1.80;;;4.90;99.90;;;;;;5044318;28;20033;-75
2023/12/04 12:06:35;;;;;;;4.28;1.45;;;5.00;99.90;;;;;;5052463;28;20033;-75
2023/12/04 12:09:01;;;;;;;1.30;0.80;;;5.00;99.90;;;;;;5051197;28;20028;-75
2023/12/04 12:11:28;;;;;;;0.43;0.43;;;4.90;99.90;;;;;;5052688;28;20036;-75
2023/12/04 12:13:54;;;;;;;4.90;2.20;;;4.90;99.90;;;;;;5045674;28;20029;-74
2023/12/04 12:16:19;;;;;;;1.48;1.38;;;4.90;99.90;;;;;;5052251;28;20528;-75
2023/12/04 12:18:46;;;;;;;4.30;2.15;;;4.90;99.90;;;;;;5052327;28;20053;-75
2023/12/04 12:21:12;;;;;;;2.72;1.98;;;4.90;99.90;;;;;;5051102;28;20444;-75
2023/12/04 12:23:39;;;;;;;2.92;1.00;;;4.80;99.90;;;;;;5052232;28;20025;-75
2023/12/04 12:26:05;;;;;;;1.10;0.73;;;5.00;99.90;;;;;;5034790;28;20025;-75
2023/12/04 12:28:31;;;;;;;12.73;3.90;;;5.00;99.90;;;;;;5052198;28;20024;-75
2023/12/04 12:31:04;;;;;;;0.25;0.25;;;5.00;99.90;;;;;;5051046;28;20570;-75
2023/12/04 12:33:30;;;;;;;1.45;0.75;;;5.00;99.90;;;;;;5052283;28;20028;-75
2023/12/04 12:35:57;;;;;;;1.88;1.38;;;5.10;99.90;;;;;;5052778;28;20040;-75
2023/12/04 12:38:23;;;;;;;2.75;2.05;;;5.10;99.90;;;;;;5056306;28;20029;-75
2023/12/04 12:40:49;;;;;;;3.25;1.90;;;5.10;99.90;;;;;;5056512;28;20028;-75
2023/12/04 12:43:14;;;;;;;1.70;0.90;;;5.20;99.90;;;;;;5056182;28;20028;-75
2023/12/04 12:45:42;;;;;;;0.93;0.90;;;5.20;99.90;;;;;;5055226;28;20465;-75
2023/12/04 12:48:16;;;;;;;1.85;1.65;;;5.20;99.90;;;;;;5055158;28;20040;-75
2023/12/04 12:50:43;;;;;;;0.40;0.40;;;5.20;99.90;;;;;;5056463;28;20021;-74
2023/12/04 12:53:11;;;;;;;4.97;2.38;;;5.30;99.90;;;;;;5056337;28;20025;-74
2023/12/04 12:55:42;;;;;;;1.88;1.17;;;5.10;99.90;;;;;;5056179;28;20358;-73